sensor_id;sensor_type;location;lat;lon;timestamp;pressure;altitude;pressure_sealevel;temperature;humidity
44313;BME280;38833;51.142;-0.974;2024-02-23T00:00:48;97134.09;;;27.19;27.66
44313;BME280;38833;51.142;-0.974;2024-02-23T00:03:22;97132.67;;;27.29;27.56
44313;BME280;38833;51.142;-0.974;2024-02-23T00:05:55;97134.69;;;27.31;27.53
44313;BME280;38833;51.142;-0.974;2024-02-23T00:08:28;97136.12;;;26.95;27.55
44313;BME280;38833;51.142;-0.974;2024-02-23T00:11:02;97125.46;;;27.42;27.57
44313;BME280;38833;51.142;-0.974;2024-02-23T00:13:35;97122.04;;;27.34;27.60
44313;BME280;38833;51.142;-0.974;2024-02-23T00:16:09;97118.62;;;27.12;27.63
44313;BME280;38833;51.142;-0.974;2024-02-23T00:18:42;97111.58;;;27.37;27.56
44313;BME280;38833;51.142;-0.974;2024-02-23T00:21:16;97108.74;;;26.98;27.65
44313;BME280;38833;51.142;-0.974;2024-02-23T00:23:49;97109.73;;;27.24;27.62
44313;BME280;38833;51.142;-0.974;2024-02-23T00:26:22;97099.06;;;27.13;27.66
44313;BME280;38833;51.142;-0.974;2024-02-23T00:28:56;97097.99;;;27.06;27.70
44313;BME280;38833;51.142;-0.974;2024-02-23T00:31:29;97092.82;;;27.01;27.71
44313;BME280;38833;51.142;-0.974;2024-02-23T00:34:02;97086.15;;;26.94;27.77
44313;BME280;38833;51.142;-0.974;2024-02-23T00:36:36;97082.02;;;26.85;27.80
44313;BME280;38833;51.142;-0.974;2024-02-23T00:39:09;97073.71;;;26.89;27.83
44313;BME280;38833;51.142;-0.974;2024-02-23T00:41:42;97072.45;;;26.79;27.83
44313;BME280;38833;51.142;-0.974;2024-02-23T00:44:15;97066.66;;;26.84;27.76
44313;BME280;38833;51.142;-0.974;2024-02-23T00:46:49;97067.41;;;26.98;27.80
44313;BME280;38833;51.142;-0.974;2024-02-23T00:49:22;97063.74;;;26.60;27.90
44313;BME280;38833;51.142;-0.974;2024-02-23T00:51:56;97058.88;;;26.55;27.94
44313;BME280;38833;51.142;-0.974;2024-02-23T00:54:29;97050.25;;;26.54;27.92
44313;BME280;38833;51.142;-0.974;2024-02-23T00:57:02;97044.82;;;26.55;27.87
44313;BME280;38833;51.142;-0.974;2024-02-23T00:59:36;97045.19;;;26.58;28.05
44313;BME280;38833;51.142;-0.974;2024-02-23T01:02:09;97034.93;;;26.43;27.95
44313;BME280;38833;51.142;-0.974;2024-02-23T01:04:42;97030.42;;;26.58;28.02
44313;BME280;38833;51.142;-0.974;2024-02-23T01:07:16;97026.89;;;26.59;27.94
44313;BME280;38833;51.142;-0.974;2024-02-23T01:09:49;97024.47;;;26.63;27.90
44313;BME280;38833;51.142;-0.974;2024-02-23T01:12:22;97017.43;;;26.54;27.94
44313;BME280;38833;51.142;-0.974;2024-02-23T01:14:55;97017.45;;;26.49;27.95
44313;BME280;38833;51.142;-0.974;2024-02-23T01:17:29;97013.78;;;26.23;27.97
44313;BME280;38833;51.142;-0.974;2024-02-23T01:20:03;97007.68;;;26.37;28.04
44313;BME280;38833;51.142;-0.974;2024-02-23T01:22:36;97004.48;;;26.05;28.07
44313;BME280;38833;51.142;-0.974;2024-02-23T01:25:10;97000.13;;;26.08;28.03
44313;BME280;38833;51.142;-0.974;2024-02-23T01:27:43;96992.51;;;26.08;27.97
44313;BME280;38833;51.142;-0.974;2024-02-23T01:30:17;96988.79;;;26.25;28.02
44313;BME280;38833;51.142;-0.974;2024-02-23T01:32:50;96989.49;;;26.18;28.05
44313;BME280;38833;51.142;-0.974;2024-02-23T01:35:23;96985.55;;;26.08;27.90
44313;BME280;38833;51.142;-0.974;2024-02-23T01:37:57;96985.37;;;26.13;28.07
44313;BME280;38833;51.142;-0.974;2024-02-23T01:40:30;96983.37;;;26.30;28.10
44313;BME280;38833;51.142;-0.974;2024-02-23T01:43:04;96977.82;;;26.05;28.03
44313;BME280;38833;51.142;-0.974;2024-02-23T01:45:38;96974.25;;;26.04;27.99
44313;BME280;38833;51.142;-0.974;2024-02-23T01:48:11;96974.35;;;26.02;28.00
44313;BME280;38833;51.142;-0.974;2024-02-23T01:50:45;96978.61;;;26.22;28.04
44313;BME280;38833;51.142;-0.974;2024-02-23T01:53:19;96977.04;;;25.91;28.10
44313;BME280;38833;51.142;-0.974;2024-02-23T01:55:53;96971.62;;;25.86;28.08
44313;BME280;38833;51.142;-0.974;2024-02-23T01:58:28;96973.67;;;25.81;28.11
44313;BME280;38833;51.142;-0.974;2024-02-23T02:01:02;96983.19;;;25.73;28.13
44313;BME280;38833;51.142;-0.974;2024-02-23T02:03:37;96988.66;;;26.03;28.10
44313;BME280;38833;51.142;-0.974;2024-02-23T02:06:11;96969.61;;;25.96;28.16
44313;BME280;38833;51.142;-0.974;2024-02-23T02:08:46;96967.18;;;25.91;28.18
44313;BME280;38833;51.142;-0.974;2024-02-23T02:11:19;96955.13;;;26.00;28.09
44313;BME280;38833;51.142;-0.974;2024-02-23T02:13:52;96952.07;;;25.90;28.15
44313;BME280;38833;51.142;-0.974;2024-02-23T02:16:26;96943.41;;;25.55;28.14
44313;BME280;38833;51.142;-0.974;2024-02-23T02:19:00;96943.06;;;25.69;28.25
44313;BME280;38833;51.142;-0.974;2024-02-23T02:21:33;96932.56;;;25.34;28.33
44313;BME280;38833;51.142;-0.974;2024-02-23T02:24:07;96925.23;;;25.86;28.27
44313;BME280;38833;51.142;-0.974;2024-02-23T02:26:41;96924.97;;;25.70;28.40
44313;BME280;38833;51.142;-0.974;2024-02-23T02:29:14;96920.15;;;25.50;28.39
44313;BME280;38833;51.142;-0.974;2024-02-23T02:31:47;96926.45;;;25.34;28.49
44313;BME280;38833;51.142;-0.974;2024-02-23T02:34:21;96927.28;;;25.36;28.45
44313;BME280;38833;51.142;-0.974;2024-02-23T02:36:54;96924.20;;;25.40;28.37
44313;BME280;38833;51.142;-0.974;2024-02-23T02:39:28;96920.30;;;25.36;28.40
44313;BME280;38833;51.142;-0.974;2024-02-23T02:42:01;96923.21;;;25.55;28.41
44313;BME280;38833;51.142;-0.974;2024-02-23T02:44:35;96926.10;;;25.64;28.49
44313;BME280;38833;51.142;-0.974;2024-02-23T02:47:08;96920.49;;;25.41;28.47
44313;BME280;38833;51.142;-0.974;2024-02-23T02:49:41;96913.05;;;25.12;28.52
44313;BME280;38833;51.142;-0.974;2024-02-23T02:52:15;96908.72;;;25.28;28.55
44313;BME280;38833;51.142;-0.974;2024-02-23T02:54:48;96897.89;;;24.85;28.48
44313;BME280;38833;51.142;-0.974;2024-02-23T02:57:22;96890.82;;;25.05;28.50
44313;BME280;38833;51.142;-0.974;2024-02-23T02:59:55;96892.54;;;25.03;28.53
44313;BME280;38833;51.142;-0.974;2024-02-23T03:02:28;96893.65;;;24.95;28.57
44313;BME280;38833;51.142;-0.974;2024-02-23T03:05:02;96897.41;;;24.89;28.60
44313;BME280;38833;51.142;-0.974;2024-02-23T03:07:35;96889.39;;;24.95;28.49
44313;BME280;38833;51.142;-0.974;2024-02-23T03:10:09;96880.23;;;24.87;28.55
44313;BME280;38833;51.142;-0.974;2024-02-23T03:12:42;96875.98;;;25.07;28.58
44313;BME280;38833;51.142;-0.974;2024-02-23T03:15:16;96878.05;;;24.81;28.56
44313;BME280;38833;51.142;-0.974;2024-02-23T03:17:49;96876.13;;;24.70;28.64
44313;BME280;38833;51.142;-0.974;2024-02-23T03:20:23;96882.85;;;25.17;28.61
44313;BME280;38833;51.142;-0.974;2024-02-23T03:22:56;96885.67;;;24.67;28.64
44313;BME280;38833;51.142;-0.974;2024-02-23T03:25:30;96887.88;;;24.89;28.65
44313;BME280;38833;51.142;-0.974;2024-02-23T03:28:03;96903.39;;;24.84;28.64
44313;BME280;38833;51.142;-0.974;2024-02-23T03:30:37;96908.00;;;25.03;28.68
44313;BME280;38833;51.142;-0.974;2024-02-23T03:33:10;96902.82;;;24.79;28.69
44313;BME280;38833;51.142;-0.974;2024-02-23T03:35:43;96907.07;;;24.78;28.66
44313;BME280;38833;51.142;-0.974;2024-02-23T03:38:17;96909.00;;;24.73;28.67
44313;BME280;38833;51.142;-0.974;2024-02-23T03:40:50;96903.93;;;24.68;28.71
44313;BME280;38833;51.142;-0.974;2024-02-23T03:43:23;96905.52;;;24.94;28.66
44313;BME280;38833;51.142;-0.974;2024-02-23T03:45:57;96898.46;;;24.80;28.75
44313;BME280;38833;51.142;-0.974;2024-02-23T03:48:31;96900.80;;;24.32;28.72
44313;BME280;38833;51.142;-0.974;2024-02-23T03:51:04;96898.21;;;24.56;28.72
44313;BME280;38833;51.142;-0.974;2024-02-23T03:53:37;96899.65;;;24.79;28.68
44313;BME280;38833;51.142;-0.974;2024-02-23T03:56:11;96899.93;;;24.81;28.72
44313;BME280;38833;51.142;-0.974;2024-02-23T03:58:44;96900.90;;;24.68;28.78
44313;BME280;38833;51.142;-0.974;2024-02-23T04:01:17;96896.33;;;24.71;28.69
44313;BME280;38833;51.142;-0.974;2024-02-23T04:03:51;96900.51;;;24.66;28.73
44313;BME280;38833;51.142;-0.974;2024-02-23T04:06:24;96895.43;;;24.31;28.81
44313;BME280;38833;51.142;-0.974;2024-02-23T04:08:58;96894.08;;;24.56;28.81
44313;BME280;38833;51.142;-0.974;2024-02-23T04:11:31;96898.27;;;24.55;28.75
44313;BME280;38833;51.142;-0.974;2024-02-23T04:14:04;96900.87;;;24.62;28.68
44313;BME280;38833;51.142;-0.974;2024-02-23T04:16:38;96904.90;;;24.54;28.74
44313;BME280;38833;51.142;-0.974;2024-02-23T04:19:11;96903.56;;;24.43;28.82
44313;BME280;38833;51.142;-0.974;2024-02-23T04:21:44;96914.31;;;24.64;28.86
44313;BME280;38833;51.142;-0.974;2024-02-23T04:24:18;96911.88;;;24.39;28.85
44313;BME280;38833;51.142;-0.974;2024-02-23T04:26:51;96911.31;;;24.14;28.81
44313;BME280;38833;51.142;-0.974;2024-02-23T04:29:24;96919.23;;;24.31;28.85
44313;BME280;38833;51.142;-0.974;2024-02-23T04:31:59;96919.48;;;24.31;28.82
44313;BME280;38833;51.142;-0.974;2024-02-23T04:34:33;96920.79;;;24.27;28.84
44313;BME280;38833;51.142;-0.974;2024-02-23T04:37:07;96924.78;;;24.02;28.83
44313;BME280;38833;51.142;-0.974;2024-02-23T04:39:40;96925.43;;;24.25;28.82
44313;BME280;38833;51.142;-0.974;2024-02-23T04:42:13;96928.34;;;24.20;28.84
44313;BME280;38833;51.142;-0.974;2024-02-23T04:44:47;96930.52;;;24.50;28.82
44313;BME280;38833;51.142;-0.974;2024-02-23T04:47:20;96936.39;;;24.22;28.74
44313;BME280;38833;51.142;-0.974;2024-02-23T04:49:53;96945.62;;;24.13;28.86
44313;BME280;38833;51.142;-0.974;2024-02-23T04:52:27;96944.32;;;24.10;28.83
44313;BME280;38833;51.142;-0.974;2024-02-23T04:55:00;96943.32;;;24.07;28.91
44313;BME280;38833;51.142;-0.974;2024-02-23T04:57:36;96939.82;;;24.08;28.87
44313;BME280;38833;51.142;-0.974;2024-02-23T05:00:10;96947.58;;;24.33;28.80
44313;BME280;38833;51.142;-0.974;2024-02-23T05:02:43;96949.54;;;24.33;28.76
44313;BME280;38833;51.142;-0.974;2024-02-23T05:05:17;96955.17;;;23.99;28.82
44313;BME280;38833;51.142;-0.974;2024-02-23T05:07:50;96949.74;;;24.01;28.81
44313;BME280;38833;51.142;-0.974;2024-02-23T05:10:23;96961.82;;;24.47;28.85
44313;BME280;38833;51.142;-0.974;2024-02-23T05:12:57;96964.52;;;23.97;28.79
44313;BME280;38833;51.142;-0.974;2024-02-23T05:15:30;96962.68;;;24.16;28.88
44313;BME280;38833;51.142;-0.974;2024-02-23T05:18:04;96965.71;;;23.90;28.84
44313;BME280;38833;51.142;-0.974;2024-02-23T05:20:37;96964.40;;;23.81;28.85
44313;BME280;38833;51.142;-0.974;2024-02-23T05:23:11;96969.09;;;23.81;28.91
44313;BME280;38833;51.142;-0.974;2024-02-23T05:25:44;96974.71;;;23.88;28.78
44313;BME280;38833;51.142;-0.974;2024-02-23T05:28:17;96982.30;;;24.03;28.85
44313;BME280;38833;51.142;-0.974;2024-02-23T05:30:51;96979.30;;;23.73;28.88
44313;BME280;38833;51.142;-0.974;2024-02-23T05:33:25;96979.60;;;23.98;28.86
44313;BME280;38833;51.142;-0.974;2024-02-23T05:35:58;96977.32;;;23.95;28.95
44313;BME280;38833;51.142;-0.974;2024-02-23T05:38:31;96974.18;;;23.93;28.93
44313;BME280;38833;51.142;-0.974;2024-02-23T05:41:05;96973.51;;;23.68;28.89
44313;BME280;38833;51.142;-0.974;2024-02-23T05:43:38;96973.15;;;24.24;28.93
44313;BME280;38833;51.142;-0.974;2024-02-23T05:46:11;96974.30;;;23.58;29.38
44313;BME280;38833;51.142;-0.974;2024-02-23T05:48:45;96974.18;;;23.62;29.61
44313;BME280;38833;51.142;-0.974;2024-02-23T05:51:18;96971.85;;;23.65;29.35
44313;BME280;38833;51.142;-0.974;2024-02-23T05:53:51;96969.41;;;23.95;29.14
44313;BME280;38833;51.142;-0.974;2024-02-23T05:56:25;96967.88;;;24.14;29.24
44313;BME280;38833;51.142;-0.974;2024-02-23T05:58:58;96972.91;;;24.06;29.35
44313;BME280;38833;51.142;-0.974;2024-02-23T06:01:31;96976.24;;;23.87;29.16
44313;BME280;38833;51.142;-0.974;2024-02-23T06:04:04;96974.97;;;24.20;29.17
44313;BME280;38833;51.142;-0.974;2024-02-23T06:06:41;96974.81;;;24.61;28.82
44313;BME280;38833;51.142;-0.974;2024-02-23T06:09:14;96977.07;;;24.74;28.76
44313;BME280;38833;51.142;-0.974;2024-02-23T06:11:48;96978.31;;;24.36;28.95
44313;BME280;38833;51.142;-0.974;2024-02-23T06:14:22;96981.35;;;25.01;28.61
44313;BME280;38833;51.142;-0.974;2024-02-23T06:16:55;96981.07;;;24.85;28.57
44313;BME280;38833;51.142;-0.974;2024-02-23T06:19:28;96982.48;;;24.57;28.69
44313;BME280;38833;51.142;-0.974;2024-02-23T06:22:02;96988.28;;;24.86;28.48
44313;BME280;38833;51.142;-0.974;2024-02-23T06:24:35;96989.62;;;24.72;28.90
44313;BME280;38833;51.142;-0.974;2024-02-23T06:27:08;96990.41;;;24.82;28.87
44313;BME280;38833;51.142;-0.974;2024-02-23T06:29:42;96993.50;;;24.65;28.67
44313;BME280;38833;51.142;-0.974;2024-02-23T06:32:15;97001.26;;;25.30;28.27
44313;BME280;38833;51.142;-0.974;2024-02-23T06:34:49;97008.90;;;24.91;28.47
44313;BME280;38833;51.142;-0.974;2024-02-23T06:37:22;97006.62;;;25.31;28.36
44313;BME280;38833;51.142;-0.974;2024-02-23T06:39:55;97012.93;;;25.31;28.20
44313;BME280;38833;51.142;-0.974;2024-02-23T06:42:29;97015.85;;;25.04;28.49
44313;BME280;38833;51.142;-0.974;2024-02-23T06:45:03;97021.86;;;25.56;28.05
44313;BME280;38833;51.142;-0.974;2024-02-23T06:47:37;97024.85;;;25.38;28.28
44313;BME280;38833;51.142;-0.974;2024-02-23T06:50:10;97024.67;;;25.18;28.26
44313;BME280;38833;51.142;-0.974;2024-02-23T06:52:43;97024.32;;;25.42;28.32
44313;BME280;38833;51.142;-0.974;2024-02-23T06:55:17;97025.57;;;25.43;28.11
44313;BME280;38833;51.142;-0.974;2024-02-23T06:57:50;97023.97;;;25.76;27.81
44313;BME280;38833;51.142;-0.974;2024-02-23T07:00:23;97034.37;;;25.74;27.88
44313;BME280;38833;51.142;-0.974;2024-02-23T07:02:56;97030.78;;;25.61;27.79
44313;BME280;38833;51.142;-0.974;2024-02-23T07:05:30;97037.53;;;25.34;28.10
44313;BME280;38833;51.142;-0.974;2024-02-23T07:08:04;97036.19;;;26.41;27.61
44313;BME280;38833;51.142;-0.974;2024-02-23T07:10:37;97038.88;;;25.86;27.69
44313;BME280;38833;51.142;-0.974;2024-02-23T07:13:10;97037.94;;;25.63;27.91
44313;BME280;38833;51.142;-0.974;2024-02-23T07:15:44;97035.77;;;25.68;27.70
44313;BME280;38833;51.142;-0.974;2024-02-23T07:18:17;97030.71;;;26.56;27.56
44313;BME280;38833;51.142;-0.974;2024-02-23T07:20:50;97033.53;;;26.35;27.55
44313;BME280;38833;51.142;-0.974;2024-02-23T07:23:24;97035.60;;;25.65;28.02
44313;BME280;38833;51.142;-0.974;2024-02-23T07:25:57;97040.41;;;25.90;27.83
44313;BME280;38833;51.142;-0.974;2024-02-23T07:28:30;97042.25;;;26.18;27.58
44313;BME280;38833;51.142;-0.974;2024-02-23T07:31:04;97037.21;;;26.39;27.36
44313;BME280;38833;51.142;-0.974;2024-02-23T07:33:38;97038.95;;;26.70;27.32
44313;BME280;38833;51.142;-0.974;2024-02-23T07:36:14;97048.33;;;26.33;27.46
44313;BME280;38833;51.142;-0.974;2024-02-23T07:38:47;97057.63;;;26.82;27.04
44313;BME280;38833;51.142;-0.974;2024-02-23T07:41:21;97058.90;;;26.38;27.45
44313;BME280;38833;51.142;-0.974;2024-02-23T07:43:54;97058.64;;;26.53;27.35
44313;BME280;38833;51.142;-0.974;2024-02-23T07:46:27;97060.85;;;26.64;27.26
44313;BME280;38833;51.142;-0.974;2024-02-23T07:49:01;97064.16;;;26.51;27.43
44313;BME280;38833;51.142;-0.974;2024-02-23T07:51:34;97063.65;;;26.93;27.04
44313;BME280;38833;51.142;-0.974;2024-02-23T07:54:07;97067.18;;;26.81;27.18
44313;BME280;38833;51.142;-0.974;2024-02-23T07:56:40;97068.17;;;26.48;27.29
44313;BME280;38833;51.142;-0.974;2024-02-23T07:59:14;97071.56;;;26.62;27.16
44313;BME280;38833;51.142;-0.974;2024-02-23T08:01:47;97065.70;;;26.53;27.22
44313;BME280;38833;51.142;-0.974;2024-02-23T08:04:20;97072.26;;;26.79;27.05
44313;BME280;38833;51.142;-0.974;2024-02-23T08:06:53;97073.46;;;26.63;27.18
44313;BME280;38833;51.142;-0.974;2024-02-23T08:09:27;97077.01;;;26.83;27.04
44313;BME280;38833;51.142;-0.974;2024-02-23T08:12:00;97073.40;;;27.05;27.06
44313;BME280;38833;51.142;-0.974;2024-02-23T08:14:34;97077.87;;;26.49;27.00
44313;BME280;38833;51.142;-0.974;2024-02-23T08:17:07;97079.13;;;26.22;27.14
44313;BME280;38833;51.142;-0.974;2024-02-23T08:19:40;97082.40;;;25.36;27.86
44313;BME280;38833;51.142;-0.974;2024-02-23T08:22:14;97086.98;;;24.76;28.31
44313;BME280;38833;51.142;-0.974;2024-02-23T08:24:47;97088.80;;;25.06;28.27
44313;BME280;38833;51.142;-0.974;2024-02-23T08:27:20;97088.59;;;24.93;28.48
44313;BME280;38833;51.142;-0.974;2024-02-23T08:29:54;97094.12;;;25.03;28.43
44313;BME280;38833;51.142;-0.974;2024-02-23T08:32:27;97094.57;;;26.25;27.60
44313;BME280;38833;51.142;-0.974;2024-02-23T08:35:00;97098.07;;;26.43;27.35
44313;BME280;38833;51.142;-0.974;2024-02-23T08:37:34;97103.82;;;26.48;26.42
44313;BME280;38833;51.142;-0.974;2024-02-23T08:40:08;97108.88;;;26.88;25.62
44313;BME280;38833;51.142;-0.974;2024-02-23T08:42:42;97107.54;;;27.01;25.21
44313;BME280;38833;51.142;-0.974;2024-02-23T08:45:15;97105.19;;;27.01;25.01
44313;BME280;38833;51.142;-0.974;2024-02-23T08:47:49;97106.31;;;27.00;24.86
44313;BME280;38833;51.142;-0.974;2024-02-23T08:50:22;97117.57;;;26.70;24.82
44313;BME280;38833;51.142;-0.974;2024-02-23T08:52:55;97123.45;;;27.12;24.80
44313;BME280;38833;51.142;-0.974;2024-02-23T08:55:29;97128.21;;;26.73;25.62
44313;BME280;38833;51.142;-0.974;2024-02-23T08:58:02;97130.80;;;26.93;25.67
44313;BME280;38833;51.142;-0.974;2024-02-23T09:00:35;97133.00;;;27.08;25.67
44313;BME280;38833;51.142;-0.974;2024-02-23T09:03:09;97138.53;;;26.78;25.66
44313;BME280;38833;51.142;-0.974;2024-02-23T09:05:42;97144.22;;;26.58;25.39
44313;BME280;38833;51.142;-0.974;2024-02-23T09:08:15;97143.98;;;26.27;25.51
44313;BME280;38833;51.142;-0.974;2024-02-23T09:10:49;97140.53;;;26.73;25.54
44313;BME280;38833;51.142;-0.974;2024-02-23T09:13:22;97137.80;;;26.37;25.53
44313;BME280;38833;51.142;-0.974;2024-02-23T09:15:55;97141.20;;;26.33;25.49
44313;BME280;38833;51.142;-0.974;2024-02-23T09:18:29;97147.35;;;26.34;25.33
44313;BME280;38833;51.142;-0.974;2024-02-23T09:21:03;97149.25;;;26.48;25.42
44313;BME280;38833;51.142;-0.974;2024-02-23T09:23:36;97146.58;;;25.62;25.73
44313;BME280;38833;51.142;-0.974;2024-02-23T09:26:10;97145.17;;;26.21;25.63
44313;BME280;38833;51.142;-0.974;2024-02-23T09:28:43;97147.99;;;26.28;25.83
44313;BME280;38833;51.142;-0.974;2024-02-23T09:31:17;97148.08;;;26.38;25.96
44313;BME280;38833;51.142;-0.974;2024-02-23T09:33:51;97148.75;;;26.36;26.23
44313;BME280;38833;51.142;-0.974;2024-02-23T09:36:24;97144.15;;;26.46;26.36
44313;BME280;38833;51.142;-0.974;2024-02-23T09:38:57;97144.91;;;26.08;26.73
44313;BME280;38833;51.142;-0.974;2024-02-23T09:41:30;97138.23;;;26.86;26.62
44313;BME280;38833;51.142;-0.974;2024-02-23T09:44:04;97138.45;;;26.61;26.93
44313;BME280;38833;51.142;-0.974;2024-02-23T09:46:37;97137.20;;;26.58;27.01
44313;BME280;38833;51.142;-0.974;2024-02-23T09:49:12;97139.39;;;26.66;27.48
44313;BME280;38833;51.142;-0.974;2024-02-23T09:51:45;97136.10;;;26.59;26.06
44313;BME280;38833;51.142;-0.974;2024-02-23T09:54:18;97140.13;;;26.89;25.56
44313;BME280;38833;51.142;-0.974;2024-02-23T09:56:52;97143.81;;;26.92;25.37
44313;BME280;38833;51.142;-0.974;2024-02-23T09:59:25;97145.23;;;26.63;25.38
44313;BME280;38833;51.142;-0.974;2024-02-23T10:01:58;97148.55;;;26.89;25.34
44313;BME280;38833;51.142;-0.974;2024-02-23T10:04:32;97149.25;;;26.63;25.41
44313;BME280;38833;51.142;-0.974;2024-02-23T10:07:06;97151.20;;;26.34;25.44
44313;BME280;38833;51.142;-0.974;2024-02-23T10:09:39;97148.89;;;26.58;25.61
44313;BME280;38833;51.142;-0.974;2024-02-23T10:12:13;97148.08;;;26.53;25.62
44313;BME280;38833;51.142;-0.974;2024-02-23T10:14:46;97146.62;;;26.52;25.41
44313;BME280;38833;51.142;-0.974;2024-02-23T10:17:20;97145.74;;;26.46;25.44
44313;BME280;38833;51.142;-0.974;2024-02-23T10:19:54;97139.55;;;25.89;25.73
44313;BME280;38833;51.142;-0.974;2024-02-23T10:22:27;97141.64;;;26.22;25.63
44313;BME280;38833;51.142;-0.974;2024-02-23T10:25:03;97144.00;;;26.13;25.75
44313;BME280;38833;51.142;-0.974;2024-02-23T10:27:37;97151.69;;;25.89;25.83
44313;BME280;38833;51.142;-0.974;2024-02-23T10:30:10;97151.05;;;26.20;25.93
44313;BME280;38833;51.142;-0.974;2024-02-23T10:32:46;97156.78;;;26.08;26.01
44313;BME280;38833;51.142;-0.974;2024-02-23T10:35:20;97154.45;;;26.15;25.99
44313;BME280;38833;51.142;-0.974;2024-02-23T10:37:55;97160.12;;;25.98;26.46
44313;BME280;38833;51.142;-0.974;2024-02-23T10:40:30;97160.50;;;26.02;26.55
44313;BME280;38833;51.142;-0.974;2024-02-23T10:43:07;97161.83;;;25.96;26.65
44313;BME280;38833;51.142;-0.974;2024-02-23T10:45:45;97160.22;;;25.85;26.76
44313;BME280;38833;51.142;-0.974;2024-02-23T10:48:19;97158.23;;;25.84;26.73
44313;BME280;38833;51.142;-0.974;2024-02-23T10:50:52;97159.18;;;25.81;26.73
44313;BME280;38833;51.142;-0.974;2024-02-23T10:53:26;97162.99;;;26.17;26.71
44313;BME280;38833;51.142;-0.974;2024-02-23T10:56:00;97167.43;;;25.90;26.72
44313;BME280;38833;51.142;-0.974;2024-02-23T10:58:34;97172.12;;;25.84;26.77
44313;BME280;38833;51.142;-0.974;2024-02-23T11:01:08;97177.54;;;25.63;26.72
44313;BME280;38833;51.142;-0.974;2024-02-23T11:03:44;97178.20;;;25.63;26.78
44313;BME280;38833;51.142;-0.974;2024-02-23T11:06:18;97179.81;;;25.43;27.01
44313;BME280;38833;51.142;-0.974;2024-02-23T11:08:52;97183.64;;;25.49;27.09
44313;BME280;38833;51.142;-0.974;2024-02-23T11:11:25;97181.51;;;25.54;27.27
44313;BME280;38833;51.142;-0.974;2024-02-23T11:14:03;97183.03;;;25.52;27.38
44313;BME280;38833;51.142;-0.974;2024-02-23T11:16:40;97186.30;;;25.68;27.18
44313;BME280;38833;51.142;-0.974;2024-02-23T11:19:14;97181.97;;;25.24;27.16
44313;BME280;38833;51.142;-0.974;2024-02-23T11:21:52;97184.01;;;25.29;27.30
44313;BME280;38833;51.142;-0.974;2024-02-23T11:24:28;97179.80;;;25.46;27.41
44313;BME280;38833;51.142;-0.974;2024-02-23T11:27:02;97177.39;;;25.23;27.40
44313;BME280;38833;51.142;-0.974;2024-02-23T11:29:35;97181.55;;;25.47;27.43
44313;BME280;38833;51.142;-0.974;2024-02-23T11:32:13;97177.41;;;25.37;27.40
44313;BME280;38833;51.142;-0.974;2024-02-23T11:35:02;97175.34;;;25.09;27.43
44313;BME280;38833;51.142;-0.974;2024-02-23T11:37:47;97171.04;;;25.30;27.49
44313;BME280;38833;51.142;-0.974;2024-02-23T11:40:21;97165.47;;;25.13;27.57
44313;BME280;38833;51.142;-0.974;2024-02-23T11:42:55;97163.37;;;25.24;27.60
44313;BME280;38833;51.142;-0.974;2024-02-23T11:45:29;97166.14;;;25.52;27.26
44313;BME280;38833;51.142;-0.974;2024-02-23T11:48:05;97161.82;;;25.43;27.31
44313;BME280;38833;51.142;-0.974;2024-02-23T11:50:39;97160.50;;;25.13;27.23
44313;BME280;38833;51.142;-0.974;2024-02-23T11:53:13;97163.74;;;25.40;27.12
44313;BME280;38833;51.142;-0.974;2024-02-23T11:55:47;97164.73;;;25.56;27.17
44313;BME280;38833;51.142;-0.974;2024-02-23T11:58:21;97161.72;;;25.45;27.22
44313;BME280;38833;51.142;-0.974;2024-02-23T12:00:55;97164.08;;;25.59;27.14
44313;BME280;38833;51.142;-0.974;2024-02-23T12:03:28;97160.01;;;25.22;27.28
44313;BME280;38833;51.142;-0.974;2024-02-23T12:06:02;97160.04;;;25.20;27.27
44313;BME280;38833;51.142;-0.974;2024-02-23T12:08:35;97159.30;;;25.71;27.20
44313;BME280;38833;51.142;-0.974;2024-02-23T12:11:09;97157.05;;;25.33;27.31
44313;BME280;38833;51.142;-0.974;2024-02-23T12:13:44;97156.24;;;25.04;27.19
44313;BME280;38833;51.142;-0.974;2024-02-23T12:16:17;97158.67;;;25.38;27.23
44313;BME280;38833;51.142;-0.974;2024-02-23T12:18:54;97154.00;;;25.67;27.18
44313;BME280;38833;51.142;-0.974;2024-02-23T12:21:29;97151.27;;;25.04;27.13
44313;BME280;38833;51.142;-0.974;2024-02-23T12:24:05;97148.12;;;24.73;27.44
44313;BME280;38833;51.142;-0.974;2024-02-23T12:26:38;97150.45;;;25.27;27.42
44313;BME280;38833;51.142;-0.974;2024-02-23T12:29:12;97146.54;;;25.37;27.46
44313;BME280;38833;51.142;-0.974;2024-02-23T12:31:45;97145.25;;;25.30;27.48
44313;BME280;38833;51.142;-0.974;2024-02-23T12:34:19;97138.81;;;25.02;27.50
44313;BME280;38833;51.142;-0.974;2024-02-23T12:36:52;97133.35;;;25.24;27.62
44313;BME280;38833;51.142;-0.974;2024-02-23T12:39:25;97131.72;;;25.05;27.52
44313;BME280;38833;51.142;-0.974;2024-02-23T12:41:59;97130.85;;;25.42;27.55
44313;BME280;38833;51.142;-0.974;2024-02-23T12:44:33;97127.52;;;25.07;27.66
44313;BME280;38833;51.142;-0.974;2024-02-23T12:47:06;97126.30;;;25.14;27.64
44313;BME280;38833;51.142;-0.974;2024-02-23T12:49:39;97127.15;;;25.14;27.61
44313;BME280;38833;51.142;-0.974;2024-02-23T12:52:13;97128.35;;;25.15;27.76
44313;BME280;38833;51.142;-0.974;2024-02-23T12:54:46;97125.77;;;25.36;27.77
44313;BME280;38833;51.142;-0.974;2024-02-23T12:57:20;97125.57;;;25.36;27.99
44313;BME280;38833;51.142;-0.974;2024-02-23T12:59:53;97122.62;;;25.63;27.93
44313;BME280;38833;51.142;-0.974;2024-02-23T13:02:27;97118.57;;;25.31;28.19
44313;BME280;38833;51.142;-0.974;2024-02-23T13:05:00;97117.56;;;25.59;28.30
44313;BME280;38833;51.142;-0.974;2024-02-23T13:07:33;97118.71;;;25.62;28.15
44313;BME280;38833;51.142;-0.974;2024-02-23T13:10:08;97115.10;;;25.13;28.34
44313;BME280;38833;51.142;-0.974;2024-02-23T13:12:41;97115.53;;;25.36;28.36
44313;BME280;38833;51.142;-0.974;2024-02-23T13:15:15;97117.13;;;25.47;28.52
44313;BME280;38833;51.142;-0.974;2024-02-23T13:17:48;97117.05;;;25.03;28.36
44313;BME280;38833;51.142;-0.974;2024-02-23T13:20:21;97114.80;;;25.13;28.18
44313;BME280;38833;51.142;-0.974;2024-02-23T13:22:55;97113.71;;;25.39;28.16